sensor_id;sensor_type;location;lat;lon;timestamp;temperature;humidity
27384;DHT22;14851;51.166;4.760;2022-10-23T00:01:31;12.10;99.90
27384;DHT22;14851;51.166;4.760;2022-10-23T00:04:06;12.10;99.90
27384;DHT22;14851;51.166;4.760;2022-10-23T00:06:35;12.00;99.90
27384;DHT22;14851;51.166;4.760;2022-10-23T00:09:06;12.00;99.90
27384;DHT22;14851;51.166;4.760;2022-10-23T00:11:33;12.00;99.90
27384;DHT22;14851;51.166;4.760;2022-10-23T00:14:01;11.90;99.90
27384;DHT22;14851;51.166;4.760;2022-10-23T00:16:29;11.90;99.90
27384;DHT22;14851;51.166;4.760;2022-10-23T00:18:56;11.90;99.90
27384;DHT22;14851;51.166;4.760;2022-10-23T00:21:24;11.90;99.90
27384;DHT22;14851;51.166;4.760;2022-10-23T00:23:50;11.80;99.90
27384;DHT22;14851;51.166;4.760;2022-10-23T00:26:19;11.90;99.90
27384;DHT22;14851;51.166;4.760;2022-10-23T00:28:49;12.00;99.90
27384;DHT22;14851;51.166;4.760;2022-10-23T00:31:16;12.00;99.90
27384;DHT22;14851;51.166;4.760;2022-10-23T00:33:45;12.10;99.90
27384;DHT22;14851;51.166;4.760;2022-10-23T00:36:13;12.00;99.90
27384;DHT22;14851;51.166;4.760;2022-10-23T00:38:42;12.00;99.90
27384;DHT22;14851;51.166;4.760;2022-10-23T00:41:22;12.10;99.90
27384;DHT22;14851;51.166;4.760;2022-10-23T00:44:09;12.00;99.90
27384;DHT22;14851;51.166;4.760;2022-10-23T00:46:37;12.10;99.90
27384;DHT22;14851;51.166;4.760;2022-10-23T00:49:04;12.00;99.90
27384;DHT22;14851;51.166;4.760;2022-10-23T00:51:46;12.00;99.90
27384;DHT22;14851;51.166;4.760;2022-10-23T00:54:16;12.10;99.90
27384;DHT22;14851;51.166;4.760;2022-10-23T00:56:43;12.10;99.90
27384;DHT22;14851;51.166;4.760;2022-10-23T00:59:10;12.10;99.90
27384;DHT22;14851;51.166;4.760;2022-10-23T01:01:39;12.10;99.90
27384;DHT22;14851;51.166;4.760;2022-10-23T01:04:06;12.00;99.90
27384;DHT22;14851;51.166;4.760;2022-10-23T01:06:41;11.90;99.90
27384;DHT22;14851;51.166;4.760;2022-10-23T01:18:10;12.00;99.90
27384;DHT22;14851;51.166;4.760;2022-10-23T01:21:04;12.00;99.90
27384;DHT22;14851;51.166;4.760;2022-10-23T01:26:34;12.00;99.90
27384;DHT22;14851;51.166;4.760;2022-10-23T01:29:14;12.00;99.90
27384;DHT22;14851;51.166;4.760;2022-10-23T01:31:50;11.90;99.90
27384;DHT22;14851;51.166;4.760;2022-10-23T01:37:04;12.00;99.90
27384;DHT22;14851;51.166;4.760;2022-10-23T01:39:46;12.00;99.90
27384;DHT22;14851;51.166;4.760;2022-10-23T01:42:18;12.00;99.90
27384;DHT22;14851;51.166;4.760;2022-10-23T01:44:52;11.90;99.90
27384;DHT22;14851;51.166;4.760;2022-10-23T01:47:26;11.90;99.90
27384;DHT22;14851;51.166;4.760;2022-10-23T01:50:01;12.00;99.90
27384;DHT22;14851;51.166;4.760;2022-10-23T01:52:29;12.10;99.90
27384;DHT22;14851;51.166;4.760;2022-10-23T01:54:58;12.10;99.90
27384;DHT22;14851;51.166;4.760;2022-10-23T01:57:28;12.00;99.90
27384;DHT22;14851;51.166;4.760;2022-10-23T02:00:06;12.10;99.90
27384;DHT22;14851;51.166;4.760;2022-10-23T02:02:50;12.10;99.90
27384;DHT22;14851;51.166;4.760;2022-10-23T02:05:23;12.10;99.90
27384;DHT22;14851;51.166;4.760;2022-10-23T02:07:54;12.00;99.90
27384;DHT22;14851;51.166;4.760;2022-10-23T02:10:25;12.00;99.90
27384;DHT22;14851;51.166;4.760;2022-10-23T02:13:18;12.00;99.90
27384;DHT22;14851;51.166;4.760;2022-10-23T02:16:02;12.00;99.90
27384;DHT22;14851;51.166;4.760;2022-10-23T02:21:31;12.10;99.90
27384;DHT22;14851;51.166;4.760;2022-10-23T02:24:10;12.00;99.90
27384;DHT22;14851;51.166;4.760;2022-10-23T02:26:51;12.00;99.90
27384;DHT22;14851;51.166;4.760;2022-10-23T02:29:30;12.10;99.90
27384;DHT22;14851;51.166;4.760;2022-10-23T02:31:58;12.00;99.90
27384;DHT22;14851;51.166;4.760;2022-10-23T02:34:27;12.00;99.90
27384;DHT22;14851;51.166;4.760;2022-10-23T02:36:56;12.20;99.90
27384;DHT22;14851;51.166;4.760;2022-10-23T02:39:26;12.20;99.90
27384;DHT22;14851;51.166;4.760;2022-10-23T02:42:07;12.10;99.90
27384;DHT22;14851;51.166;4.760;2022-10-23T02:53:16;12.20;99.90
27384;DHT22;14851;51.166;4.760;2022-10-23T02:56:09;12.20;99.90
27384;DHT22;14851;51.166;4.760;2022-10-23T02:58:50;12.30;99.90
27384;DHT22;14851;51.166;4.760;2022-10-23T03:01:28;12.20;99.90
27384;DHT22;14851;51.166;4.760;2022-10-23T03:03:59;12.20;99.90
27384;DHT22;14851;51.166;4.760;2022-10-23T03:06:26;12.30;99.90
27384;DHT22;14851;51.166;4.760;2022-10-23T03:09:07;12.10;99.90
27384;DHT22;14851;51.166;4.760;2022-10-23T03:11:34;12.20;99.90
27384;DHT22;14851;51.166;4.760;2022-10-23T03:14:00;12.20;99.90
27384;DHT22;14851;51.166;4.760;2022-10-23T03:16:26;12.20;99.90
27384;DHT22;14851;51.166;4.760;2022-10-23T03:18:54;12.30;99.90
27384;DHT22;14851;51.166;4.760;2022-10-23T03:21:21;12.20;99.90
27384;DHT22;14851;51.166;4.760;2022-10-23T03:23:50;12.20;99.90
27384;DHT22;14851;51.166;4.760;2022-10-23T03:26:21;12.30;99.90
27384;DHT22;14851;51.166;4.760;2022-10-23T03:28:47;12.10;99.90
27384;DHT22;14851;51.166;4.760;2022-10-23T03:31:17;12.20;99.90
27384;DHT22;14851;51.166;4.760;2022-10-23T03:33:44;12.30;99.90
27384;DHT22;14851;51.166;4.760;2022-10-23T03:36:11;12.20;99.90
27384;DHT22;14851;51.166;4.760;2022-10-23T03:38:38;12.20;99.90
27384;DHT22;14851;51.166;4.760;2022-10-23T03:41:04;12.20;99.90
27384;DHT22;14851;51.166;4.760;2022-10-23T03:43:31;12.20;99.90
27384;DHT22;14851;51.166;4.760;2022-10-23T03:45:57;12.20;99.90
27384;DHT22;14851;51.166;4.760;2022-10-23T03:48:24;12.20;99.90
27384;DHT22;14851;51.166;4.760;2022-10-23T03:50:56;12.20;99.90
27384;DHT22;14851;51.166;4.760;2022-10-23T03:53:24;12.10;99.90
27384;DHT22;14851;51.166;4.760;2022-10-23T03:55:50;12.10;99.90
27384;DHT22;14851;51.166;4.760;2022-10-23T03:58:16;12.20;99.90
27384;DHT22;14851;51.166;4.760;2022-10-23T04:00:42;12.10;99.90
27384;DHT22;14851;51.166;4.760;2022-10-23T04:03:08;12.10;99.90
27384;DHT22;14851;51.166;4.760;2022-10-23T04:05:36;12.20;99.90
27384;DHT22;14851;51.166;4.760;2022-10-23T04:08:02;12.00;99.90
27384;DHT22;14851;51.166;4.760;2022-10-23T04:10:30;12.10;99.90
27384;DHT22;14851;51.166;4.760;2022-10-23T04:12:57;12.00;99.90
27384;DHT22;14851;51.166;4.760;2022-10-23T04:15:23;12.10;99.90
27384;DHT22;14851;51.166;4.760;2022-10-23T04:17:49;12.10;99.90
27384;DHT22;14851;51.166;4.760;2022-10-23T04:20:18;12.00;99.90
27384;DHT22;14851;51.166;4.760;2022-10-23T04:22:44;12.00;99.90
27384;DHT22;14851;51.166;4.760;2022-10-23T04:25:10;12.00;99.90
27384;DHT22;14851;51.166;4.760;2022-10-23T04:27:36;12.00;99.90
27384;DHT22;14851;51.166;4.760;2022-10-23T04:30:02;11.90;99.90
27384;DHT22;14851;51.166;4.760;2022-10-23T04:32:28;12.00;99.90
27384;DHT22;14851;51.166;4.760;2022-10-23T04:34:57;11.90;99.90
27384;DHT22;14851;51.166;4.760;2022-10-23T04:37:26;12.00;99.90
27384;DHT22;14851;51.166;4.760;2022-10-23T04:39:52;11.90;99.90
27384;DHT22;14851;51.166;4.760;2022-10-23T04:42:18;11.90;99.90
27384;DHT22;14851;51.166;4.760;2022-10-23T04:44:46;11.90;99.90
27384;DHT22;14851;51.166;4.760;2022-10-23T04:47:12;11.90;99.90
27384;DHT22;14851;51.166;4.760;2022-10-23T04:49:52;11.90;99.90
27384;DHT22;14851;51.166;4.760;2022-10-23T04:52:21;11.90;99.90
27384;DHT22;14851;51.166;4.760;2022-10-23T04:55:08;12.00;99.90
27384;DHT22;14851;51.166;4.760;2022-10-23T04:57:42;12.10;99.90
27384;DHT22;14851;51.166;4.760;2022-10-23T05:00:10;11.90;99.90
27384;DHT22;14851;51.166;4.760;2022-10-23T05:02:45;12.00;99.90
27384;DHT22;14851;51.166;4.760;2022-10-23T05:05:15;12.00;99.90
27384;DHT22;14851;51.166;4.760;2022-10-23T05:08:01;11.90;99.90
27384;DHT22;14851;51.166;4.760;2022-10-23T05:10:44;11.80;99.90
27384;DHT22;14851;51.166;4.760;2022-10-23T05:13:12;12.00;99.90
27384;DHT22;14851;51.166;4.760;2022-10-23T05:15:50;11.90;99.90
27384;DHT22;14851;51.166;4.760;2022-10-23T05:18:44;11.80;99.90
27384;DHT22;14851;51.166;4.760;2022-10-23T05:21:20;12.00;99.90
27384;DHT22;14851;51.166;4.760;2022-10-23T05:23:48;12.00;99.90
27384;DHT22;14851;51.166;4.760;2022-10-23T05:26:15;12.00;99.90
27384;DHT22;14851;51.166;4.760;2022-10-23T05:28:44;11.90;99.90
27384;DHT22;14851;51.166;4.760;2022-10-23T05:31:18;12.00;99.90
27384;DHT22;14851;51.166;4.760;2022-10-23T05:33:49;11.90;99.90
27384;DHT22;14851;51.166;4.760;2022-10-23T05:36:15;11.90;99.90
27384;DHT22;14851;51.166;4.760;2022-10-23T05:38:44;11.90;99.90
27384;DHT22;14851;51.166;4.760;2022-10-23T05:41:21;12.10;99.90
27384;DHT22;14851;51.166;4.760;2022-10-23T05:43:47;12.10;99.90
27384;DHT22;14851;51.166;4.760;2022-10-23T05:46:39;12.20;99.90
27384;DHT22;14851;51.166;4.760;2022-10-23T05:49:25;12.00;99.90
27384;DHT22;14851;51.166;4.760;2022-10-23T05:52:14;12.20;99.90
27384;DHT22;14851;51.166;4.760;2022-10-23T05:55:15;12.10;99.90
27384;DHT22;14851;51.166;4.760;2022-10-23T05:58:13;12.20;99.90
27384;DHT22;14851;51.166;4.760;2022-10-23T06:01:13;12.20;99.90
27384;DHT22;14851;51.166;4.760;2022-10-23T06:03:58;12.10;99.90
27384;DHT22;14851;51.166;4.760;2022-10-23T06:06:33;12.00;99.90
27384;DHT22;14851;51.166;4.760;2022-10-23T06:08:59;12.20;99.90
27384;DHT22;14851;51.166;4.760;2022-10-23T06:11:26;12.10;99.90
27384;DHT22;14851;51.166;4.760;2022-10-23T06:13:59;12.20;99.90
27384;DHT22;14851;51.166;4.760;2022-10-23T06:16:25;12.30;99.90
27384;DHT22;14851;51.166;4.760;2022-10-23T06:18:53;12.30;99.90
27384;DHT22;14851;51.166;4.760;2022-10-23T06:21:20;12.20;99.90
27384;DHT22;14851;51.166;4.760;2022-10-23T06:23:48;12.10;99.90
27384;DHT22;14851;51.166;4.760;2022-10-23T06:26:44;12.10;99.90
27384;DHT22;14851;51.166;4.760;2022-10-23T06:29:17;12.30;99.90
27384;DHT22;14851;51.166;4.760;2022-10-23T06:31:43;12.20;99.90
27384;DHT22;14851;51.166;4.760;2022-10-23T06:34:11;12.30;99.90
27384;DHT22;14851;51.166;4.760;2022-10-23T06:36:37;12.10;99.90
27384;DHT22;14851;51.166;4.760;2022-10-23T06:39:27;12.20;99.90
27384;DHT22;14851;51.166;4.760;2022-10-23T06:42:23;12.20;99.90
27384;DHT22;14851;51.166;4.760;2022-10-23T06:45:10;12.40;99.90
27384;DHT22;14851;51.166;4.760;2022-10-23T06:47:54;12.30;99.90
27384;DHT22;14851;51.166;4.760;2022-10-23T06:50:39;12.30;99.90
27384;DHT22;14851;51.166;4.760;2022-10-23T06:53:10;12.30;99.90
27384;DHT22;14851;51.166;4.760;2022-10-23T06:55:41;12.40;99.90
27384;DHT22;14851;51.166;4.760;2022-10-23T06:58:09;12.50;99.90
27384;DHT22;14851;51.166;4.760;2022-10-23T07:01:09;12.40;99.90
27384;DHT22;14851;51.166;4.760;2022-10-23T07:03:36;12.60;99.90
27384;DHT22;14851;51.166;4.760;2022-10-23T07:06:09;12.50;99.90
27384;DHT22;14851;51.166;4.760;2022-10-23T07:08:39;12.50;99.90
27384;DHT22;14851;51.166;4.760;2022-10-23T07:11:25;12.80;99.90
27384;DHT22;14851;51.166;4.760;2022-10-23T07:13:54;12.80;99.90
27384;DHT22;14851;51.166;4.760;2022-10-23T07:16:22;12.80;99.90
27384;DHT22;14851;51.166;4.760;2022-10-23T07:18:53;12.80;99.90
27384;DHT22;14851;51.166;4.760;2022-10-23T07:21:27;12.70;99.90
27384;DHT22;14851;51.166;4.760;2022-10-23T07:24:04;12.90;99.90
27384;DHT22;14851;51.166;4.760;2022-10-23T07:26:33;12.70;99.90
27384;DHT22;14851;51.166;4.760;2022-10-23T07:29:02;12.80;99.90
27384;DHT22;14851;51.166;4.760;2022-10-23T07:31:30;12.90;99.90
27384;DHT22;14851;51.166;4.760;2022-10-23T07:34:15;12.90;99.90
27384;DHT22;14851;51.166;4.760;2022-10-23T07:36:42;13.10;99.90
27384;DHT22;14851;51.166;4.760;2022-10-23T07:39:08;13.10;99.90
27384;DHT22;14851;51.166;4.760;2022-10-23T07:41:45;13.20;99.90
27384;DHT22;14851;51.166;4.760;2022-10-23T07:44:11;13.10;99.90
27384;DHT22;14851;51.166;4.760;2022-10-23T07:46:40;13.10;99.90
27384;DHT22;14851;51.166;4.760;2022-10-23T07:49:09;13.20;99.90
27384;DHT22;14851;51.166;4.760;2022-10-23T07:54:17;13.20;99.90
27384;DHT22;14851;51.166;4.760;2022-10-23T07:57:02;13.20;99.90
27384;DHT22;14851;51.166;4.760;2022-10-23T07:59:41;13.30;99.90
27384;DHT22;14851;51.166;4.760;2022-10-23T08:02:14;13.50;99.90
27384;DHT22;14851;51.166;4.760;2022-10-23T08:04:41;13.60;99.90
27384;DHT22;14851;51.166;4.760;2022-10-23T08:07:22;13.60;99.90
27384;DHT22;14851;51.166;4.760;2022-10-23T08:09:56;13.40;99.90
27384;DHT22;14851;51.166;4.760;2022-10-23T08:12:24;13.40;99.90
27384;DHT22;14851;51.166;4.760;2022-10-23T08:14:50;13.60;99.90
27384;DHT22;14851;51.166;4.760;2022-10-23T08:17:16;13.70;99.90
27384;DHT22;14851;51.166;4.760;2022-10-23T08:20:21;13.60;99.90
27384;DHT22;14851;51.166;4.760;2022-10-23T08:22:47;13.60;99.90
27384;DHT22;14851;51.166;4.760;2022-10-23T08:25:21;13.60;99.90
27384;DHT22;14851;51.166;4.760;2022-10-23T08:27:49;13.70;99.90
27384;DHT22;14851;51.166;4.760;2022-10-23T08:30:18;13.70;99.90
27384;DHT22;14851;51.166;4.760;2022-10-23T08:32:44;13.80;99.90
27384;DHT22;14851;51.166;4.760;2022-10-23T08:35:12;13.60;99.90
27384;DHT22;14851;51.166;4.760;2022-10-23T08:37:38;13.70;99.90
27384;DHT22;14851;51.166;4.760;2022-10-23T08:40:16;13.90;99.90
27384;DHT22;14851;51.166;4.760;2022-10-23T08:46:14;13.80;99.90
27384;DHT22;14851;51.166;4.760;2022-10-23T08:52:08;13.90;99.90
27384;DHT22;14851;51.166;4.760;2022-10-23T08:57:32;14.00;99.90
27384;DHT22;14851;51.166;4.760;2022-10-23T09:00:11;13.90;99.90
27384;DHT22;14851;51.166;4.760;2022-10-23T09:02:44;14.00;99.90
27384;DHT22;14851;51.166;4.760;2022-10-23T09:05:22;14.00;99.90
27384;DHT22;14851;51.166;4.760;2022-10-23T09:18:52;14.40;99.90
27384;DHT22;14851;51.166;4.760;2022-10-23T09:21:19;14.30;99.90
27384;DHT22;14851;51.166;4.760;2022-10-23T09:23:49;14.40;99.90
27384;DHT22;14851;51.166;4.760;2022-10-23T09:26:16;14.50;99.90
27384;DHT22;14851;51.166;4.760;2022-10-23T09:28:52;14.50;99.90
27384;DHT22;14851;51.166;4.760;2022-10-23T09:31:21;14.40;99.90
27384;DHT22;14851;51.166;4.760;2022-10-23T09:33:59;14.50;99.90
27384;DHT22;14851;51.166;4.760;2022-10-23T09:36:29;14.60;99.90
27384;DHT22;14851;51.166;4.760;2022-10-23T09:38:58;14.60;99.90
27384;DHT22;14851;51.166;4.760;2022-10-23T09:41:33;14.70;99.90
27384;DHT22;14851;51.166;4.760;2022-10-23T09:46:46;14.70;99.90
27384;DHT22;14851;51.166;4.760;2022-10-23T09:49:26;14.80;99.90
27384;DHT22;14851;51.166;4.760;2022-10-23T09:54:42;14.90;99.90
27384;DHT22;14851;51.166;4.760;2022-10-23T10:02:41;15.10;99.90
27384;DHT22;14851;51.166;4.760;2022-10-23T10:10:43;15.30;99.90
27384;DHT22;14851;51.166;4.760;2022-10-23T10:19:10;15.40;99.90
27384;DHT22;14851;51.166;4.760;2022-10-23T10:24:31;15.40;99.90
27384;DHT22;14851;51.166;4.760;2022-10-23T10:30:02;15.50;99.90
27384;DHT22;14851;51.166;4.760;2022-10-23T10:41:33;15.80;99.90
27384;DHT22;14851;51.166;4.760;2022-10-23T10:46:58;16.00;99.90
27384;DHT22;14851;51.166;4.760;2022-10-23T10:55:25;16.30;99.90
27384;DHT22;14851;51.166;4.760;2022-10-23T10:58:02;16.40;99.90
27384;DHT22;14851;51.166;4.760;2022-10-23T11:00:32;16.40;99.90
27384;DHT22;14851;51.166;4.760;2022-10-23T11:03:35;16.40;99.90
27384;DHT22;14851;51.166;4.760;2022-10-23T11:06:04;16.40;99.90
27384;DHT22;14851;51.166;4.760;2022-10-23T11:08:34;16.40;99.90
27384;DHT22;14851;51.166;4.760;2022-10-23T11:11:19;16.40;99.90
27384;DHT22;14851;51.166;4.760;2022-10-23T11:13:49;16.50;99.90
27384;DHT22;14851;51.166;4.760;2022-10-23T11:16:23;16.50;99.90
27384;DHT22;14851;51.166;4.760;2022-10-23T11:19:03;16.50;99.90
27384;DHT22;14851;51.166;4.760;2022-10-23T11:24:41;16.60;99.90
27384;DHT22;14851;51.166;4.760;2022-10-23T11:32:55;16.80;99.90
27384;DHT22;14851;51.166;4.760;2022-10-23T11:38:26;16.80;99.90
27384;DHT22;14851;51.166;4.760;2022-10-23T11:40:59;16.80;99.90
27384;DHT22;14851;51.166;4.760;2022-10-23T11:43:34;16.80;99.90
27384;DHT22;14851;51.166;4.760;2022-10-23T11:48:49;16.90;99.90
27384;DHT22;14851;51.166;4.760;2022-10-23T11:51:38;16.90;99.90
27384;DHT22;14851;51.166;4.760;2022-10-23T11:57:01;16.90;99.90
27384;DHT22;14851;51.166;4.760;2022-10-23T11:59:33;17.00;99.90
27384;DHT22;14851;51.166;4.760;2022-10-23T12:07:57;17.10;99.90
27384;DHT22;14851;51.166;4.760;2022-10-23T12:10:33;17.20;99.90
27384;DHT22;14851;51.166;4.760;2022-10-23T12:13:02;17.20;99.90
27384;DHT22;14851;51.166;4.760;2022-10-23T12:15:31;17.30;99.90
27384;DHT22;14851;51.166;4.760;2022-10-23T12:18:16;17.30;99.90
27384;DHT22;14851;51.166;4.760;2022-10-23T12:21:00;17.40;99.90
27384;DHT22;14851;51.166;4.760;2022-10-23T12:24:09;17.40;99.90
27384;DHT22;14851;51.166;4.760;2022-10-23T12:40:01;17.50;99.90
27384;DHT22;14851;51.166;4.760;2022-10-23T12:42:34;17.60;99.90
27384;DHT22;14851;51.166;4.760;2022-10-23T12:47:35;17.70;99.90
27384;DHT22;14851;51.166;4.760;2022-10-23T12:50:01;17.70;99.90
27384;DHT22;14851;51.166;4.760;2022-10-23T12:52:27;17.70;99.90
27384;DHT22;14851;51.166;4.760;2022-10-23T12:55:12;17.70;99.90
27384;DHT22;14851;51.166;4.760;2022-10-23T12:57:45;17.70;99.90
27384;DHT22;14851;51.166;4.760;2022-10-23T13:00:17;17.70;99.90
27384;DHT22;14851;51.166;4.760;2022-10-23T13:02:45;17.80;99.90
27384;DHT22;14851;51.166;4.760;2022-10-23T13:05:18;17.90;99.90
27384;DHT22;14851;51.166;4.760;2022-10-23T13:07:46;17.90;99.90
27384;DHT22;14851;51.166;4.760;2022-10-23T13:10:23;18.00;99.90
27384;DHT22;14851;51.166;4.760;2022-10-23T13:13:04;18.00;99.90
27384;DHT22;14851;51.166;4.760;2022-10-23T13:15:40;18.00;99.90
27384;DHT22;14851;51.166;4.760;2022-10-23T13:18:07;18.10;99.90
27384;DHT22;14851;51.166;4.760;2022-10-23T13:20:36;18.10;99.90
27384;DHT22;14851;51.166;4.760;2022-10-23T13:26:04;18.10;99.90
27384;DHT22;14851;51.166;4.760;2022-10-23T13:28:41;18.10;99.90
27384;DHT22;14851;51.166;4.760;2022-10-23T13:36:36;18.10;99.90
27384;DHT22;14851;51.166;4.760;2022-10-23T13:39:13;18.10;99.90
27384;DHT22;14851;51.166;4.760;2022-10-23T13:41:43;18.10;99.90
27384;DHT22;14851;51.166;4.760;2022-10-23T13:44:15;18.10;99.90
27384;DHT22;14851;51.166;4.760;2022-10-23T13:46:44;18.10;99.90
27384;DHT22;14851;51.166;4.760;2022-10-23T13:49:13;18.20;99.90
27384;DHT22;14851;51.166;4.760;2022-10-23T13:51:49;18.20;99.90
27384;DHT22;14851;51.166;4.760;2022-10-23T13:54:24;18.10;99.90
27384;DHT22;14851;51.166;4.760;2022-10-23T13:56:51;18.10;99.90
27384;DHT22;14851;51.166;4.760;2022-10-23T13:59:17;18.10;99.90
27384;DHT22;14851;51.166;4.760;2022-10-23T14:01:45;18.10;99.90
27384;DHT22;14851;51.166;4.760;2022-10-23T14:04:14;18.00;99.90
27384;DHT22;14851;51.166;4.760;2022-10-23T14:06:51;18.00;99.90
27384;DHT22;14851;51.166;4.760;2022-10-23T14:09:23;18.00;99.90
27384;DHT22;14851;51.166;4.760;2022-10-23T14:11:49;18.00;99.90
27384;DHT22;14851;51.166;4.760;2022-10-23T14:14:15;18.00;99.90
27384;DHT22;14851;51.166;4.760;2022-10-23T14:16:42;18.00;99.90
27384;DHT22;14851;51.166;4.760;2022-10-23T14:19:09;18.00;99.90
27384;DHT22;14851;51.166;4.760;2022-10-23T14:21:36;18.00;99.90
27384;DHT22;14851;51.166;4.760;2022-10-23T14:24:02;18.00;99.90
27384;DHT22;14851;51.166;4.760;2022-10-23T14:26:28;18.00;99.90
27384;DHT22;14851;51.166;4.760;2022-10-23T14:28:56;18.00;99.90
27384;DHT22;14851;51.166;4.760;2022-10-23T14:31:23;17.90;99.90
27384;DHT22;14851;51.166;4.760;2022-10-23T14:33:53;18.00;99.90
27384;DHT22;14851;51.166;4.760;2022-10-23T14:36:20;18.00;99.90
27384;DHT22;14851;51.166;4.760;2022-10-23T14:38:47;18.00;99.90
27384;DHT22;14851;51.166;4.760;2022-10-23T14:41:15;18.00;99.90
27384;DHT22;14851;51.166;4.760;2022-10-23T14:43:43;18.00;99.90
27384;DHT22;14851;51.166;4.760;2022-10-23T14:46:11;18.00;99.90
27384;DHT22;14851;51.166;4.760;2022-10-23T14:48:39;18.00;99.90
27384;DHT22;14851;51.166;4.760;2022-10-23T14:51:13;18.00;99.90
27384;DHT22;14851;51.166;4.760;2022-10-23T14:53:40;18.00;99.90
27384;DHT22;14851;51.166;4.760;2022-10-23T14:56:08;18.10;99.90
27384;DHT22;14851;51.166;4.760;2022-10-23T14:58:35;18.10;99.90
27384;DHT22;14851;51.166;4.760;2022-10-23T15:01:02;18.00;99.90
27384;DHT22;14851;51.166;4.760;2022-10-23T15:03:29;18.00;99.90
27384;DHT22;14851;51.166;4.760;2022-10-23T15:05:56;17.90;99.90
27384;DHT22;14851;51.166;4.760;2022-10-23T15:08:23;17.90;99.90
27384;DHT22;14851;51.166;4.760;2022-10-23T15:10:49;17.90;99.90
27384;DHT22;14851;51.166;4.760;2022-10-23T15:13:15;17.90;99.90
27384;DHT22;14851;51.166;4.760;2022-10-23T15:15:41;17.90;99.90
27384;DHT22;14851;51.166;4.760;2022-10-23T15:18:07;17.80;99.90
27384;DHT22;14851;51.166;4.760;2022-10-23T15:20:33;17.80;99.90
27384;DHT22;14851;51.166;4.760;2022-10-23T15:22:59;17.80;99.90
27384;DHT22;14851;51.166;4.760;2022-10-23T15:25:28;17.70;99.90
27384;DHT22;14851;51.166;4.760;2022-10-23T15:27:55;17.70;99.90
27384;DHT22;14851;51.166;4.760;2022-10-23T15:30:21;17.70;99.90
27384;DHT22;14851;51.166;4.760;2022-10-23T15:32:49;17.70;99.90
27384;DHT22;14851;51.166;4.760;2022-10-23T15:35:17;17.70;99.90
27384;DHT22;14851;51.166;4.760;2022-10-23T15:37:43;17.70;99.90
27384;DHT22;14851;51.166;4.760;2022-10-23T15:40:11;17.70;99.90
27384;DHT22;14851;51.166;4.760;2022-10-23T15:42:37;17.70;99.90
27384;DHT22;14851;51.166;4.760;2022-10-23T15:45:09;17.60;99.90
27384;DHT22;14851;51.166;4.760;2022-10-23T15:47:38;17.60;99.90
27384;DHT22;14851;51.166;4.760;2022-10-23T15:50:04;17.60;99.90
27384;DHT22;14851;51.166;4.760;2022-10-23T15:52:32;17.60;99.90
27384;DHT22;14851;51.166;4.760;2022-10-23T15:55:03;17.60;99.90
27384;DHT22;14851;51.166;4.760;2022-10-23T15:57:31;17.50;99.90
27384;DHT22;14851;51.166;4.760;2022-10-23T15:59:57;17.60;99.90
27384;DHT22;14851;51.166;4.760;2022-10-23T16:02:24;17.50;99.90
27384;DHT22;14851;51.166;4.760;2022-10-23T16:04:51;17.50;99.90
27384;DHT22;14851;51.166;4.760;2022-10-23T16:07:22;17.40;99.90
27384;DHT22;14851;51.166;4.760;2022-10-23T16:09:51;17.40;99.90
27384;DHT22;14851;51.166;4.760;2022-10-23T16:12:19;17.40;99.90
27384;DHT22;14851;51.166;4.760;2022-10-23T16:14:46;17.30;99.90
27384;DHT22;14851;51.166;4.760;2022-10-23T16:17:15;17.30;99.90
27384;DHT22;14851;51.166;4.760;2022-10-23T16:19:41;17.30;99.90
27384;DHT22;14851;51.166;4.760;2022-10-23T16:22:07;17.30;99.90
27384;DHT22;14851;51.166;4.760;2022-10-23T16:24:34;17.30;99.90
27384;DHT22;14851;51.166;4.760;2022-10-23T16:27:01;17.30;99.90
27384;DHT22;14851;51.166;4.760;2022-10-23T16:29:27;17.30;99.90
27384;DHT22;14851;51.166;4.760;2022-10-23T16:31:55;17.30;99.90
27384;DHT22;14851;51.166;4.760;2022-10-23T16:34:22;17.30;99.90
27384;DHT22;14851;51.166;4.760;2022-10-23T16:36:48;17.30;99.90
27384;DHT22;14851;51.166;4.760;2022-10-23T16:39:30;17.30;99.90
27384;DHT22;14851;51.166;4.760;2022-10-23T16:42:17;17.30;99.90
27384;DHT22;14851;51.166;4.760;2022-10-23T16:45:09;17.30;99.90
27384;DHT22;14851;51.166;4.760;2022-10-23T16:47:35;17.20;99.90
27384;DHT22;14851;51.166;4.760;2022-10-23T16:50:03;17.20;99.90
27384;DHT22;14851;51.166;4.760;2022-10-23T16:52:29;17.20;99.90
27384;DHT22;14851;51.166;4.760;2022-10-23T16:54:56;17.10;99.90
27384;DHT22;14851;51.166;4.760;2022-10-23T16:57:35;17.20;99.90
27384;DHT22;14851;51.166;4.760;2022-10-23T17:00:03;17.10;99.90
27384;DHT22;14851;51.166;4.760;2022-10-23T17:02:29;17.10;99.90
27384;DHT22;14851;51.166;4.760;2022-10-23T17:04:55;17.00;99.90
27384;DHT22;14851;51.166;4.760;2022-10-23T17:07:23;17.00;99.90
27384;DHT22;14851;51.166;4.760;2022-10-23T17:09:49;17.00;99.90
27384;DHT22;14851;51.166;4.760;2022-10-23T17:12:17;16.90;99.90
27384;DHT22;14851;51.166;4.760;2022-10-23T17:14:44;16.90;99.90
27384;DHT22;14851;51.166;4.760;2022-10-23T17:17:11;16.80;99.90
27384;DHT22;14851;51.166;4.760;2022-10-23T17:19:38;16.80;99.90
27384;DHT22;14851;51.166;4.760;2022-10-23T17:22:07;16.80;99.90
27384;DHT22;14851;51.166;4.760;2022-10-23T17:24:39;16.80;99.90
27384;DHT22;14851;51.166;4.760;2022-10-23T17:27:07;16.80;99.90
27384;DHT22;14851;51.166;4.760;2022-10-23T17:29:37;16.80;99.90
27384;DHT22;14851;51.166;4.760;2022-10-23T17:32:03;16.90;99.90
27384;DHT22;14851;51.166;4.760;2022-10-23T17:34:30;16.80;99.90
27384;DHT22;14851;51.166;4.760;2022-10-23T17:36:57;16.90;99.90
27384;DHT22;14851;51.166;4.760;2022-10-23T17:39:27;16.90;99.90
27384;DHT22;14851;51.166;4.760;2022-10-23T17:41:55;17.00;99.90
27384;DHT22;14851;51.166;4.760;2022-10-23T17:44:23;16.90;99.90
27384;DHT22;14851;51.166;4.760;2022-10-23T17:46:51;16.90;99.90
27384;DHT22;14851;51.166;4.760;2022-10-23T17:49:18;16.90;99.90
27384;DHT22;14851;51.166;4.760;2022-10-23T17:51:44;16.90;99.90
27384;DHT22;14851;51.166;4.760;2022-10-23T17:54:11;16.90;99.90
27384;DHT22;14851;51.166;4.760;2022-10-23T17:56:38;16.90;99.90
27384;DHT22;14851;51.166;4.760;2022-10-23T17:59:09;16.90;99.90
27384;DHT22;14851;51.166;4.760;2022-10-23T18:01:37;16.90;99.90
27384;DHT22;14851;51.166;4.760;2022-10-23T18:04:06;16.90;99.90
27384;DHT22;14851;51.166;4.760;2022-10-23T18:06:39;16.90;99.90
27384;DHT22;14851;51.166;4.760;2022-10-23T18:09:05;16.90;99.90
27384;DHT22;14851;51.166;4.760;2022-10-23T18:11:38;17.00;99.90
27384;DHT22;14851;51.166;4.760;2022-10-23T18:14:09;17.00;99.90
27384;DHT22;14851;51.166;4.760;2022-10-23T18:16:38;17.00;99.90
27384;DHT22;14851;51.166;4.760;2022-10-23T18:19:06;17.00;99.90
27384;DHT22;14851;51.166;4.760;2022-10-23T18:21:32;17.10;99.90